Time;durP1;ratioP1;P1;durP2;ratioP2;P2;SDS_P1;SDS_P2;PMS_P1;PMS_P2;Temp;Humidity;BMP_temperature;BMP_pressure;BME280_temperature;BME280_humidity;BME280_pressure;Samples;Min_cycle;Max_cycle;Signal;HPM_P1;HPM_P2
2023/07/28 00:00:12;;;;;;;11.47;5.40;;;;;;;16.86;100.00;99697.88;6051492;28;20465;-63
2023/07/28 00:03:07;;;;;;;8.68;5.20;;;;;;;16.87;100.00;99702.19;6051469;28;20022;-64
2023/07/28 00:06:02;;;;;;;9.70;5.82;;;;;;;16.81;100.00;99686.97;6050162;28;20033;-64
2023/07/28 00:08:58;;;;;;;10.53;5.27;;;;;;;16.79;100.00;99695.22;6051451;28;20029;-64
2023/07/28 00:11:53;;;;;;;8.33;4.87;;;;;;;16.83;100.00;99699.13;6053695;28;20291;-64
2023/07/28 00:14:48;;;;;;;8.70;4.77;;;;;;;16.79;100.00;99695.22;6055244;28;20427;-64
2023/07/28 00:17:44;;;;;;;19.42;4.82;;;;;;;16.82;100.00;99702.00;6064101;28;20026;-64
2023/07/28 00:20:39;;;;;;;8.55;4.20;;;;;;;16.86;100.00;99705.91;6054253;28;20025;-63
2023/07/28 00:23:34;;;;;;;9.23;4.53;;;;;;;16.85;100.00;99698.91;6044482;28;20567;-64
2023/07/28 00:26:30;;;;;;;6.37;4.20;;;;;;;16.76;100.00;99678.75;6059728;28;20299;-64
2023/07/28 00:29:25;;;;;;;8.30;4.43;;;;;;;16.86;100.00;99704.06;6052213;28;20507;-63
2023/07/28 00:32:21;;;;;;;8.43;4.43;;;;;;;16.89;100.00;99702.81;6053617;28;20283;-64
2023/07/28 00:35:16;;;;;;;12.73;4.75;;;;;;;16.85;100.00;99698.91;6050247;28;20108;-63
2023/07/28 00:38:11;;;;;;;7.97;4.47;;;;;;;16.94;100.00;99713.69;6055846;28;20112;-63
2023/07/28 00:41:07;;;;;;;7.57;4.10;;;;;;;16.79;100.00;99689.03;6050506;28;20273;-64
2023/07/28 00:44:02;;;;;;;7.87;3.97;;;;;;;16.81;100.00;99687.78;6050282;28;20465;-64
2023/07/28 00:46:57;;;;;;;7.13;4.07;;;;;;;16.85;100.00;99699.72;6050950;28;20061;-63
2023/07/28 00:49:53;;;;;;;8.43;4.50;;;;;;;16.79;100.00;99699.75;6049985;28;20357;-63
2023/07/28 00:52:49;;;;;;;10.85;4.63;;;;;;;16.82;100.00;99699.34;6049259;28;20048;-64
2023/07/28 00:55:45;;;;;;;8.00;4.63;;;;;;;16.80;100.00;99709.41;6050212;28;20030;-63
2023/07/28 00:58:41;;;;;;;8.63;4.70;;;;;;;16.76;100.00;99708.22;6050461;28;20030;-64
2023/07/28 01:01:36;;;;;;;10.07;4.60;;;;;;;16.84;100.00;99710.66;6049050;28;20088;-64
2023/07/28 01:04:31;;;;;;;8.47;4.43;;;;;;;16.84;100.00;99708.81;6050265;28;20042;-63
2023/07/28 01:07:46;;;;;;;8.10;4.87;;;;;;;16.80;100.00;99701.38;6058449;28;20026;-64
2023/07/28 01:10:42;;;;;;;9.77;4.55;;;;;;;16.86;100.00;99700.53;6055413;28;20287;-64
2023/07/28 01:13:37;;;;;;;7.53;4.20;;;;;;;16.88;100.00;99698.47;6049605;28;20030;-63
2023/07/28 01:16:32;;;;;;;9.97;4.60;;;;;;;16.89;100.00;99700.94;6051029;28;20284;-64
2023/07/28 01:19:28;;;;;;;8.17;4.00;;;;;;;16.84;100.00;99684.69;6050055;28;20129;-64
2023/07/28 01:22:36;;;;;;;7.10;4.23;;;;;;;16.96;100.00;99684.88;6051500;28;20273;-63
2023/07/28 01:25:34;;;;;;;6.70;3.85;;;;;;;16.95;100.00;99699.28;6058716;28;20028;-64
2023/07/28 01:28:30;;;;;;;9.32;4.38;;;;;;;16.93;100.00;99690.66;6058345;28;20035;-64
2023/07/28 01:31:25;;;;;;;6.33;3.70;;;;;;;16.94;100.00;99692.28;6061173;28;20030;-64
2023/07/28 01:34:20;;;;;;;13.43;4.10;;;;;;;16.93;100.00;99696.81;6049178;28;20810;-64
2023/07/28 01:37:15;;;;;;;10.50;4.23;;;;;;;16.94;100.00;99687.75;6054733;28;20022;-64
2023/07/28 01:40:11;;;;;;;7.60;3.93;;;;;;;16.98;100.00;99690.81;6049669;28;20026;-64
2023/07/28 01:43:06;;;;;;;6.80;3.88;;;;;;;16.98;100.00;99688.97;6049577;28;20128;-64
2023/07/28 01:46:02;;;;;;;6.00;3.70;;;;;;;16.85;100.00;99662.22;6048796;28;20034;-64
2023/07/28 01:48:57;;;;;;;8.17;3.80;;;;;;;17.00;100.00;99696.78;6054050;28;20763;-64
2023/07/28 01:51:52;;;;;;;8.40;3.80;;;;;;;17.00;100.00;99691.44;6051070;28;20041;-64
2023/07/28 01:54:47;;;;;;;7.50;3.70;;;;;;;16.91;100.00;99682.81;6051146;28;20037;-65
2023/07/28 01:57:57;;;;;;;4.83;2.90;;;;;;;16.97;100.00;99691.84;6057134;28;20088;-64
2023/07/28 02:00:52;;;;;;;5.50;3.42;;;;;;;16.95;100.00;99688.56;6051845;28;20025;-65
2023/07/28 02:03:48;;;;;;;8.57;3.00;;;;;;;16.85;100.00;99683.66;6057752;28;20489;-64
2023/07/28 02:06:43;;;;;;;7.33;3.47;;;;;;;16.87;100.00;99688.81;6056007;28;20026;-64
2023/07/28 02:09:38;;;;;;;6.57;3.30;;;;;;;16.86;100.00;99690.66;6050239;28;20099;-64
2023/07/28 02:12:34;;;;;;;6.67;3.07;;;;;;;16.78;100.00;99682.03;6054190;28;20429;-64
2023/07/28 02:15:29;;;;;;;5.18;3.10;;;;;;;16.77;100.00;99683.09;6052903;28;20022;-64
2023/07/28 02:18:24;;;;;;;7.17;3.67;;;;;;;16.75;100.00;99677.09;6049467;28;20034;-64
2023/07/28 02:21:20;;;;;;;5.73;2.80;;;;;;;16.77;100.00;99680.41;6049350;28;20071;-64
2023/07/28 02:24:15;;;;;;;7.77;3.60;;;;;;;16.82;100.00;99699.34;6048587;28;20034;-64
2023/07/28 02:27:10;;;;;;;7.03;3.43;;;;;;;16.85;100.00;99693.56;6051093;28;20084;-65
2023/07/28 02:30:06;;;;;;;6.20;3.78;;;;;;;16.80;100.00;99685.31;6051705;28;20049;-64
2023/07/28 02:33:01;;;;;;;7.82;3.67;;;;;;;16.81;100.00;99698.50;6049271;28;20119;-64
2023/07/28 02:35:57;;;;;;;6.25;4.00;;;;;;;16.84;100.00;99705.28;6049785;28;20034;-64
2023/07/28 02:38:53;;;;;;;5.63;3.63;;;;;;;16.80;100.00;99702.22;6050380;28;20558;-64
2023/07/28 02:41:48;;;;;;;6.07;3.97;;;;;;;16.80;100.00;99691.50;6058715;28;20037;-64
2023/07/28 02:44:43;;;;;;;5.87;3.47;;;;;;;16.78;100.00;99698.09;6058511;28;20151;-65
2023/07/28 02:47:39;;;;;;;6.23;3.73;;;;;;;16.77;100.00;99694.59;6063981;28;20740;-64
2023/07/28 02:50:34;;;;;;;5.07;3.57;;;;;;;16.87;100.00;99702.19;6073613;28;20075;-64
2023/07/28 02:53:29;;;;;;;5.80;3.17;;;;;;;16.91;100.00;99706.09;6055428;28;20034;-64
2023/07/28 02:56:24;;;;;;;5.63;3.20;;;;;;;16.85;100.00;99704.28;6052771;28;20038;-64
2023/07/28 02:59:21;;;;;;;5.30;3.07;;;;;;;16.86;100.00;99716.63;6057978;28;20487;-64
2023/07/28 03:02:16;;;;;;;5.13;2.72;;;;;;;16.86;100.00;99722.78;6070090;28;20036;-65
2023/07/28 03:05:12;;;;;;;4.97;2.33;;;;;;;16.91;100.00;99727.50;6060700;28;20037;-65
2023/07/28 03:08:07;;;;;;;6.93;3.15;;;;;;;16.94;100.00;99727.91;6055556;28;20420;-64
2023/07/28 03:11:03;;;;;;;5.03;2.33;;;;;;;16.95;100.00;99734.09;6058198;28;20030;-65
2023/07/28 03:13:58;;;;;;;4.77;2.40;;;;;;;16.91;100.00;99719.47;6052256;28;20261;-65
2023/07/28 03:16:53;;;;;;;5.40;2.60;;;;;;;17.01;100.00;99735.94;6067187;28;20156;-65
2023/07/28 03:19:48;;;;;;;4.83;2.67;;;;;;;16.95;100.00;99736.78;6055175;28;20436;-65
2023/07/28 03:22:44;;;;;;;4.47;1.97;;;;;;;16.91;100.00;99719.47;6054756;28;20034;-65
2023/07/28 03:25:39;;;;;;;6.60;2.53;;;;;;;16.95;100.00;99731.44;6056063;28;20039;-65
2023/07/28 03:28:34;;;;;;;3.47;2.10;;;;;;;17.02;100.00;99734.88;6060469;28;20489;-65
2023/07/28 03:31:30;;;;;;;8.27;2.50;;;;;;;17.03;100.00;99739.22;6052597;28;20088;-65
2023/07/28 03:34:26;;;;;;;4.05;2.15;;;;;;;16.95;100.00;99724.22;6055377;28;20025;-65
2023/07/28 03:37:21;;;;;;;6.30;1.88;;;;;;;16.97;100.00;99729.34;6052868;28;20030;-65
2023/07/28 03:40:17;;;;;;;6.77;2.23;;;;;;;17.02;100.00;99741.06;6051699;28;20040;-65
2023/07/28 03:43:12;;;;;;;3.00;1.90;;;;;;;17.01;100.00;99747.47;6051925;28;20048;-65
2023/07/28 03:46:07;;;;;;;2.83;1.95;;;;;;;17.03;100.00;99749.94;6056835;28;20456;-65
2023/07/28 03:49:03;;;;;;;3.13;1.60;;;;;;;17.05;100.00;99747.88;6052000;28;20084;-64
2023/07/28 03:51:58;;;;;;;4.90;1.80;;;;;;;16.99;100.00;99738.81;6050998;28;20332;-65
2023/07/28 03:54:53;;;;;;;4.30;1.90;;;;;;;16.97;100.00;99735.53;6057440;28;20481;-65
2023/07/28 03:57:48;;;;;;;3.57;1.80;;;;;;;17.05;100.00;99745.19;6060295;28;20026;-64
2023/07/28 04:00:44;;;;;;;3.40;1.70;;;;;;;16.99;100.00;99738.00;6059606;28;20045;-65
2023/07/28 04:03:40;;;;;;;3.97;1.67;;;;;;;17.01;100.00;99746.66;6054165;28;20385;-65
2023/07/28 04:06:53;;;;;;;3.65;1.83;;;;;;;17.04;100.00;99756.97;6053075;28;20032;-65
2023/07/28 04:09:49;;;;;;;4.65;1.92;;;;;;;17.02;100.00;99751.78;6053212;28;20043;-65
2023/07/28 04:12:44;;;;;;;9.77;2.07;;;;;;;17.09;100.00;99759.81;6051611;28;20026;-65
2023/07/28 04:15:39;;;;;;;7.40;2.10;;;;;;;17.00;100.00;99747.69;6053670;28;20049;-65
2023/07/28 04:18:34;;;;;;;2.90;1.70;;;;;;;17.07;100.00;99767.22;6051364;28;20088;-65
2023/07/28 04:21:30;;;;;;;3.20;1.60;;;;;;;17.02;100.00;99751.78;6055415;28;20029;-65
2023/07/28 04:24:25;;;;;;;4.83;1.80;;;;;;;17.03;100.00;99757.97;6050405;28;20378;-65
2023/07/28 04:27:20;;;;;;;3.55;1.50;;;;;;;17.04;100.00;99751.59;6051733;28;20113;-65
2023/07/28 04:30:16;;;;;;;2.90;1.43;;;;;;;17.03;100.00;99750.78;6051186;28;20090;-64
2023/07/28 04:33:11;;;;;;;2.70;1.67;;;;;;;17.10;100.00;99753.41;6050887;28;20029;-65
2023/07/28 04:36:06;;;;;;;3.70;1.70;;;;;;;17.13;100.00;99750.31;6066218;28;20033;-65
2023/07/28 04:39:02;;;;;;;3.93;1.77;;;;;;;17.24;100.00;99755.84;6052567;28;20029;-65
2023/07/28 04:41:57;;;;;;;2.90;1.40;;;;;;;17.18;100.00;99737.09;6070651;28;20032;-65
2023/07/28 04:44:52;;;;;;;2.97;1.60;;;;;;;17.31;100.00;99763.03;6056485;28;20109;-65
2023/07/28 04:47:48;;;;;;;4.13;1.70;;;;;;;17.25;100.00;99760.19;6054619;28;20108;-65
2023/07/28 04:50:44;;;;;;;3.13;1.47;;;;;;;17.15;100.00;99769.66;6050559;28;20481;-65
2023/07/28 04:53:39;;;;;;;2.95;1.80;;;;;;;17.15;100.00;99775.03;6050003;28;20277;-65
2023/07/28 04:56:35;;;;;;;4.40;1.50;;;;;;;17.15;100.00;99786.56;6056913;28;20043;-65
2023/07/28 04:59:30;;;;;;;2.97;1.73;;;;;;;17.14;100.00;99784.13;6050268;28;20381;-65
2023/07/28 05:02:25;;;;;;;5.10;1.80;;;;;;;17.16;100.00;99787.41;6049555;28;20036;-65
2023/07/28 05:05:21;;;;;;;4.00;1.67;;;;;;;17.21;100.00;99792.94;6050403;28;20033;-65
2023/07/28 05:08:16;;;;;;;5.15;1.55;;;;;;;17.31;100.00;99785.31;6050260;28;20437;-65
2023/07/28 05:11:11;;;;;;;2.67;1.63;;;;;;;17.33;100.00;99780.53;6050473;28;20034;-65
2023/07/28 05:14:08;;;;;;;3.77;1.77;;;;;;;17.40;100.00;99773.28;6049291;28;20055;-65
2023/07/28 05:17:04;;;;;;;4.68;1.70;;;;;;;17.51;100.00;99780.66;6058047;28;20033;-65
2023/07/28 05:20:00;;;;;;;4.78;1.45;;;;;;;17.58;100.00;99786.84;6053294;28;20461;-65
2023/07/28 05:22:55;;;;;;;2.78;1.60;;;;;;;17.55;100.00;99778.41;6050421;28;20026;-65
2023/07/28 05:25:51;;;;;;;2.73;1.50;;;;;;;17.53;100.00;99785.81;6052765;28;20388;-65
2023/07/28 05:28:46;;;;;;;3.40;1.70;;;;;;;17.55;100.00;99787.28;6049773;28;20033;-64
2023/07/28 05:31:42;;;;;;;3.30;1.50;;;;;;;17.59;100.00;99793.03;6060684;28;20037;-65
2023/07/28 05:34:41;;;;;;;3.08;1.75;;;;;;;17.65;100.00;99803.72;6049281;28;20374;-64
2023/07/28 05:37:36;;;;;;;2.45;1.50;;;;;;;17.62;100.00;99790.75;6051114;28;20033;-65
2023/07/28 05:40:32;;;;;;;5.43;1.67;;;;;;;17.75;100.00;99803.25;6049844;28;20132;-64
2023/07/28 05:43:27;;;;;;;2.63;1.33;;;;;;;17.71;100.00;99807.41;6061498;28;20021;-65
2023/07/28 05:46:22;;;;;;;3.00;1.50;;;;;;;17.78;100.00;99809.03;6056663;28;20042;-65
2023/07/28 05:49:18;;;;;;;5.20;1.50;;;;;;;17.68;100.00;99803.31;6062839;28;20725;-65
2023/07/28 05:52:13;;;;;;;2.90;1.50;;;;;;;17.70;100.00;99811.13;6054497;28;20029;-65
2023/07/28 05:55:08;;;;;;;5.17;1.60;;;;;;;17.69;100.00;99796.88;6049120;28;20025;-65
2023/07/28 05:58:04;;;;;;;3.33;1.35;;;;;;;17.80;100.00;99814.19;6054157;28;20026;-65
2023/07/28 06:00:59;;;;;;;4.00;1.30;;;;;;;17.77;100.00;99818.09;6053964;28;20100;-65
2023/07/28 06:03:58;;;;;;;4.23;2.03;;;;;;;17.69;100.00;99807.63;6048777;28;20030;-65
2023/07/28 06:06:54;;;;;;;2.65;1.52;;;;;;;17.69;100.00;99815.66;6052564;28;20056;-65
2023/07/28 06:09:49;;;;;;;3.27;1.80;;;;;;;17.70;100.00;99811.94;6049470;28;20462;-65
2023/07/28 06:12:44;;;;;;;3.00;1.52;;;;;;;17.76;100.00;99821.81;6050474;28;20118;-65
2023/07/28 06:15:41;;;;;;;2.80;1.63;;;;;;;17.79;100.00;99820.56;6055435;28;20030;-65
2023/07/28 06:18:36;;;;;;;4.00;1.52;;;;;;;17.82;100.00;99825.53;6057466;28;20053;-65
2023/07/28 06:21:32;;;;;;;3.10;1.80;;;;;;;17.82;100.00;99830.88;6054456;28;20389;-65
2023/07/28 06:24:27;;;;;;;2.60;1.60;;;;;;;17.71;100.00;99824.34;6053245;28;20033;-65
2023/07/28 06:27:22;;;;;;;4.60;2.10;;;;;;;17.76;100.00;99837.91;6064670;28;20038;-65
2023/07/28 06:30:18;;;;;;;3.57;2.00;;;;;;;17.90;100.00;99817.22;6056428;28;20041;-65
2023/07/28 06:33:13;;;;;;;3.53;1.83;;;;;;;17.97;100.00;99828.72;6064269;28;20365;-65
2023/07/28 06:36:08;;;;;;;3.33;1.87;;;;;;;18.05;100.00;99830.31;6053519;28;20025;-65
2023/07/28 06:39:04;;;;;;;3.33;1.90;;;;;;;18.12;100.00;99841.84;6053440;28;20026;-65
2023/07/28 06:41:59;;;;;;;5.68;1.92;;;;;;;18.19;100.00;99854.19;6046492;28;20762;-65
2023/07/28 06:44:56;;;;;;;6.77;2.20;;;;;;;18.31;100.00;99859.69;6057455;28;20498;-65
2023/07/28 06:47:51;;;;;;;2.92;1.60;;;;;;;18.25;100.00;99857.88;6052928;28;20295;-65
2023/07/28 06:50:47;;;;;;;11.00;2.65;;;;;;;18.42;100.00;99870.56;6053437;28;20497;-65
2023/07/28 06:53:42;;;;;;;4.70;2.07;;;;;;;18.40;100.00;99866.41;6052091;28;20029;-65
2023/07/28 06:56:38;;;;;;;5.43;2.43;;;;;;;18.33;100.00;99860.28;6059618;28;20416;-65
2023/07/28 06:59:33;;;;;;;4.03;2.47;;;;;;;18.49;100.00;99875.91;6052640;28;20029;-65
2023/07/28 07:02:29;;;;;;;3.13;1.80;;;;;;;18.58;100.00;99871.09;6052854;28;20041;-65
2023/07/28 07:05:24;;;;;;;3.85;1.88;;;;;;;18.79;100.00;99884.97;6051987;28;20053;-65
2023/07/28 07:08:19;;;;;;;2.70;1.77;;;;;;;18.89;100.00;99871.03;6052353;28;20048;-65
2023/07/28 07:11:15;;;;;;;2.97;1.80;;;;;;;18.78;100.00;99880.63;6059706;28;20277;-65
2023/07/28 07:14:10;;;;;;;3.45;2.10;;;;;;;18.64;100.00;99887.16;6057331;28;20029;-65
2023/07/28 07:17:06;;;;;;;3.75;1.80;;;;;;;18.75;100.00;99886.44;6063335;28;20124;-65
2023/07/28 07:20:02;;;;;;;3.63;2.00;;;;;;;18.59;100.00;99875.44;6052349;28;20037;-65
2023/07/28 07:22:57;;;;;;;5.63;1.83;;;;;;;18.65;100.00;99891.47;6060957;28;20125;-65
2023/07/28 07:25:52;;;;;;;3.35;1.90;;;;;;;18.54;100.00;99908.28;6054245;28;20025;-64
2023/07/28 07:28:48;;;;;;;5.60;2.10;;;;;;;18.62;100.00;99894.59;6058220;28;20029;-65
2023/07/28 07:31:43;;;;;;;3.73;2.10;;;;;;;18.76;100.00;99906.88;6052228;28;20380;-65
2023/07/28 07:34:38;;;;;;;4.83;2.10;;;;;;;18.77;100.00;99900.50;6051671;28;20052;-65
2023/07/28 07:37:34;;;;;;;3.42;2.00;;;;;;;18.83;100.00;99896.09;6059241;28;20076;-65
2023/07/28 07:40:29;;;;;;;6.90;2.37;;;;;;;18.90;100.00;99904.91;6051923;28;20029;-64
2023/07/28 07:43:25;;;;;;;4.00;2.60;;;;;;;18.86;100.00;99885.72;6069888;28;20029;-64
2023/07/28 07:46:20;;;;;;;4.45;2.55;;;;;;;18.97;100.00;99905.66;6067907;28;20125;-65
2023/07/28 07:49:15;;;;;;;4.07;2.30;;;;;;;19.08;100.00;99912.22;6059904;28;20042;-65
2023/07/28 07:52:11;;;;;;;3.47;2.20;;;;;;;19.05;100.00;99912.66;6051307;28;20026;-65
2023/07/28 07:55:06;;;;;;;4.20;2.63;;;;;;;18.95;100.00;99916.66;6050940;28;20149;-64
2023/07/28 07:58:01;;;;;;;4.45;2.90;;;;;;;18.99;100.00;99901.75;6051431;28;20293;-65
2023/07/28 08:00:58;;;;;;;4.18;2.30;;;;;;;19.02;100.00;99924.69;6051099;28;20124;-65
2023/07/28 08:03:54;;;;;;;5.20;2.73;;;;;;;19.18;100.00;99920.59;6051269;28;20041;-64
2023/07/28 08:06:49;;;;;;;5.47;2.43;;;;;;;19.21;100.00;99930.91;6051384;28;20393;-65
2023/07/28 08:09:45;;;;;;;5.33;2.67;;;;;;;19.32;100.00;99927.50;6051766;28;20033;-65
2023/07/28 08:12:41;;;;;;;6.45;2.60;;;;;;;19.48;100.00;99926.94;6051455;28;20293;-65
2023/07/28 08:15:36;;;;;;;3.85;2.35;;;;;;;19.68;100.00;99929.41;6050976;28;20061;-65
2023/07/28 08:18:32;;;;;;;4.67;2.40;;;;;;;19.76;100.00;99915.69;6061557;28;20044;-65
2023/07/28 08:21:27;;;;;;;6.55;2.35;;;;;;;19.99;100.00;99927.38;6056311;28;20029;-65
2023/07/28 08:24:23;;;;;;;4.25;2.42;;;;;;;19.87;100.00;99923.78;6052752;28;20073;-65
2023/07/28 08:27:18;;;;;;;4.82;2.42;;;;;;;20.09;100.00;99953.75;6059048;28;20044;-65
2023/07/28 08:30:15;;;;;;;3.37;2.30;;;;;;;19.90;100.00;99949.44;6050840;28;20033;-65
2023/07/28 08:33:10;;;;;;;4.22;2.45;;;;;;;19.65;100.00;99946.81;6051119;28;20022;-65
2023/07/28 08:36:05;;;;;;;3.33;2.17;;;;;;;19.52;100.00;99944.28;6050358;28;20037;-65
2023/07/28 08:39:01;;;;;;;4.87;2.53;;;;;;;19.52;100.00;99937.03;6050939;28;20056;-65
2023/07/28 08:42:03;;;;;;;4.77;2.73;;;;;;;19.24;100.00;99965.44;6056894;28;20330;-65
2023/07/28 08:44:58;;;;;;;5.15;3.42;;;;;;;18.71;100.00;99944.34;6073962;28;20049;-64
2023/07/28 08:47:53;;;;;;;5.50;3.60;;;;;;;18.68;100.00;99977.00;6058945;28;20086;-65
2023/07/28 08:50:49;;;;;;;9.13;3.70;;;;;;;18.32;100.00;99963.31;6052374;28;20029;-64
2023/07/28 08:53:44;;;;;;;6.00;3.60;;;;;;;18.38;100.00;99981.28;6049559;28;20092;-64
2023/07/28 08:56:40;;;;;;;6.32;3.80;;;;;;;18.44;100.00;99975.88;6050616;28;20029;-64
2023/07/28 08:59:36;;;;;;;4.83;3.33;;;;;;;18.50;100.00;99968.84;6050295;28;20034;-64
2023/07/28 09:02:32;;;;;;;4.60;2.92;;;;;;;18.77;100.00;99975.72;6052429;28;20349;-64
2023/07/28 09:05:28;;;;;;;6.28;3.50;;;;;;;18.95;100.00;99961.50;6039682;28;20036;-65
2023/07/28 09:08:24;;;;;;;4.68;2.97;;;;;;;19.24;100.00;99965.44;6062072;28;20428;-65
2023/07/28 09:11:19;;;;;;;6.15;3.10;;;;;;;19.53;100.00;99970.13;6055661;28;20061;-65
2023/07/28 09:14:16;;;;;;;3.40;2.47;;;;;;;19.88;100.00;99965.81;6053779;28;20026;-64
2023/07/28 09:17:16;;;;;;;3.83;2.53;;;;;;;20.43;100.00;99972.00;6050381;28;20044;-64
2023/07/28 09:20:15;;;;;;;6.72;2.08;;;;;;;21.06;100.00;99964.19;6049836;28;20108;-65
2023/07/28 09:23:13;;;;;;;3.63;2.20;;;;;;;21.73;100.00;99964.69;6054937;28;20029;-65
2023/07/28 09:26:09;;;;;;;2.90;1.92;;;;;;;22.32;100.00;99967.06;6049386;28;20041;-65
2023/07/28 09:29:31;;;;;;;6.13;2.20;;;;;;;22.39;95.05;99973.13;6054314;28;20045;-65
2023/07/28 09:32:32;;;;;;;2.55;1.80;;;;;;;22.68;94.10;99973.97;6049741;28;20096;-65
2023/07/28 09:35:28;;;;;;;3.42;1.90;;;;;;;22.70;92.04;99960.19;6045102;28;20056;-65
2023/07/28 09:38:24;;;;;;;2.40;1.70;;;;;;;22.52;93.71;99951.22;6049304;28;20418;-65
2023/07/28 09:41:20;;;;;;;2.42;1.58;;;;;;;21.93;90.72;99971.38;6052796;28;20090;-65
2023/07/28 09:44:16;;;;;;;2.33;1.65;;;;;;;21.65;93.33;99975.88;6054585;28;20156;-65
2023/07/28 09:47:11;;;;;;;10.65;2.20;;;;;;;21.86;94.78;99977.94;6049292;28;20029;-65
2023/07/28 09:50:08;;;;;;;3.15;1.77;;;;;;;22.09;92.61;99983.34;6054392;28;20045;-65
2023/07/28 09:53:04;;;;;;;2.90;1.42;;;;;;;22.48;92.35;99976.25;6055978;28;20061;-65
2023/07/28 09:56:00;;;;;;;2.78;1.60;;;;;;;22.72;87.09;99968.91;6057299;28;20033;-65
2023/07/28 09:58:56;;;;;;;2.70;1.60;;;;;;;22.62;86.84;99976.78;6057527;28;20022;-65
2023/07/28 10:01:51;;;;;;;2.58;1.52;;;;;;;22.53;87.07;99979.88;6057190;28;20401;-65
2023/07/28 10:04:47;;;;;;;3.67;1.60;;;;;;;22.52;86.55;99983.66;6055796;28;20087;-65
2023/07/28 10:07:43;;;;;;;3.13;1.75;;;;;;;22.64;84.99;99975.50;6056126;28;20045;-65
2023/07/28 10:10:40;;;;;;;2.92;1.38;;;;;;;23.04;85.41;99964.59;6057461;28;20076;-65
2023/07/28 10:13:44;;;;;;;2.95;1.63;;;;;;;23.57;80.24;99956.78;6056525;28;20095;-65
2023/07/28 10:16:39;;;;;;;3.42;1.40;;;;;;;23.52;79.48;99983.78;6064054;28;20044;-65
2023/07/28 10:19:36;;;;;;;3.13;1.33;;;;;;;22.75;81.12;99971.09;6057675;28;20412;-65
2023/07/28 10:22:31;;;;;;;2.15;1.48;;;;;;;22.64;85.09;99990.94;6057531;28;20034;-65
2023/07/28 10:25:26;;;;;;;3.07;1.63;;;;;;;23.27;81.39;99971.72;6063090;28;20029;-65
2023/07/28 10:28:43;;;;;;;2.20;1.23;;;;;;;23.23;79.49;99973.28;6056709;28;20461;-65
2023/07/28 10:32:04;;;;;;;2.13;1.55;;;;;;;23.59;77.13;99983.63;6056682;28;20030;-65
2023/07/28 10:35:01;;;;;;;1.92;1.35;;;;;;;23.61;75.30;99987.72;6056661;28;20122;-65
2023/07/28 10:37:56;;;;;;;2.65;1.40;;;;;;;23.35;76.89;99982.94;6056885;28;20141;-65
2023/07/28 10:40:52;;;;;;;2.58;1.52;;;;;;;23.21;78.59;99975.44;6057209;28;20477;-65
2023/07/28 10:43:47;;;;;;;3.43;1.50;;;;;;;22.94;80.13;99996.88;6079106;28;20037;-66
2023/07/28 10:46:43;;;;;;;4.18;1.50;;;;;;;22.79;81.11;99994.72;6054213;28;20057;-65
2023/07/28 10:49:38;;;;;;;2.08;1.30;;;;;;;22.95;80.24;99993.09;6049047;28;20120;-65
2023/07/28 10:52:33;;;;;;;4.70;1.30;;;;;;;23.07;79.75;99991.97;6063830;28;20030;-65
2023/07/28 10:55:29;;;;;;;2.53;1.50;;;;;;;22.90;80.14;99984.91;6055947;28;20111;-65
2023/07/28 10:58:24;;;;;;;4.33;1.50;;;;;;;22.78;81.18;99986.84;6057154;28;20025;-65
2023/07/28 11:01:21;;;;;;;2.77;1.30;;;;;;;23.29;78.75;99978.50;6060666;28;20515;-65
2023/07/28 11:04:17;;;;;;;2.88;1.60;;;;;;;23.50;76.33;99991.34;6057187;28;20041;-65
2023/07/28 11:07:13;;;;;;;2.25;1.38;;;;;;;23.45;78.09;99987.75;6050155;28;20041;-66
2023/07/28 11:10:10;;;;;;;3.45;1.35;;;;;;;23.22;76.84;99986.00;6049634;28;20046;-65
2023/07/28 11:13:07;;;;;;;3.60;1.55;;;;;;;23.45;75.86;99995.88;6058729;28;20480;-66
2023/07/28 11:16:02;;;;;;;2.40;1.67;;;;;;;23.33;75.49;99986.97;6049709;28;20038;-65
2023/07/28 11:19:02;;;;;;;2.60;1.50;;;;;;;23.25;77.23;99982.78;6054563;28;20088;-65
2023/07/28 11:21:58;;;;;;;3.00;1.50;;;;;;;23.16;77.11;99995.09;6053982;28;20033;-65
2023/07/28 11:24:53;;;;;;;2.67;1.50;;;;;;;23.06;77.96;100000.34;6059786;28;20033;-63
2023/07/28 11:27:49;;;;;;;2.60;1.60;;;;;;;23.14;78.73;99994.53;6049967;28;20038;-66
2023/07/28 11:30:47;;;;;;;1.70;1.50;;;;;;;23.39;78.79;99994.97;6064658;28;20352;-64
2023/07/28 11:33:42;;;;;;;2.72;1.35;;;;;;;23.37;75.32;99997.06;6049718;28;20531;-64
2023/07/28 11:36:38;;;;;;;2.77;1.37;;;;;;;23.47;74.28;100007.25;6062540;28;20046;-64
2023/07/28 11:39:33;;;;;;;2.20;1.47;;;;;;;23.36;74.41;100013.53;6052886;28;20036;-64
2023/07/28 11:42:29;;;;;;;2.30;1.40;;;;;;;23.22;75.01;100010.34;6059900;28;20505;-64
2023/07/28 11:45:24;;;;;;;2.80;1.40;;;;;;;23.31;74.45;99987.22;6062296;28;20276;-64
2023/07/28 11:48:20;;;;;;;2.58;1.50;;;;;;;23.74;71.54;100001.97;6048523;28;20053;-65
2023/07/28 11:51:16;;;;;;;2.67;1.40;;;;;;;24.07;71.14;100007.31;6048746;28;20025;-66
2023/07/28 11:54:16;;;;;;;2.60;1.40;;;;;;;23.82;71.49;100005.06;6046409;28;20057;-66
2023/07/28 11:57:12;;;;;;;3.10;1.30;;;;;;;24.31;71.59;99987.03;6048861;28;20385;-63
2023/07/28 12:00:08;;;;;;;2.92;1.38;;;;;;;25.13;67.99;99995.78;6047991;28;20033;-64
2023/07/28 12:03:06;;;;;;;2.53;1.30;;;;;;;25.67;66.31;100006.53;6058619;28;20083;-64
2023/07/28 12:06:09;;;;;;;2.45;1.40;;;;;;;25.30;64.37;100001.06;6050628;28;20389;-64
2023/07/28 12:09:08;;;;;;;2.20;1.30;;;;;;;25.48;61.50;100003.41;6040418;28;20077;-66
2023/07/28 12:12:04;;;;;;;2.13;1.15;;;;;;;25.45;63.53;99995.75;6047038;28;20077;-67
2023/07/28 12:15:04;;;;;;;2.13;1.33;;;;;;;25.72;62.32;99992.97;6047271;28;20499;-67
2023/07/28 12:18:13;;;;;;;2.17;1.25;;;;;;;26.02;61.76;100014.88;6048179;28;20049;-64
2023/07/28 12:21:08;;;;;;;6.05;1.45;;;;;;;25.34;62.59;100018.47;6048598;28;20042;-64
2023/07/28 12:24:03;;;;;;;2.13;1.40;;;;;;;24.52;64.93;100009.78;6051874;28;20100;-66
2023/07/28 12:26:59;;;;;;;3.35;1.50;;;;;;;24.38;67.90;100020.19;6051430;28;20057;-65
2023/07/28 12:29:54;;;;;;;3.70;1.80;;;;;;;24.50;68.30;100015.47;6047813;28;20053;-65
2023/07/28 12:32:49;;;;;;;1.70;1.20;;;;;;;24.38;67.39;100014.75;6050734;28;20026;-65
2023/07/28 12:35:45;;;;;;;2.57;1.60;;;;;;;24.35;65.36;100015.25;6046963;28;20055;-65
2023/07/28 12:38:40;;;;;;;1.90;1.40;;;;;;;24.13;66.22;100030.72;6049276;28;20380;-65
2023/07/28 12:41:35;;;;;;;2.53;1.40;;;;;;;24.16;66.14;100022.09;6047505;28;20041;-65
2023/07/28 12:44:31;;;;;;;3.30;1.30;;;;;;;23.96;65.21;100024.50;6047510;28;20029;-64
2023/07/28 12:47:26;;;;;;;2.37;1.67;;;;;;;23.65;67.42;100021.34;6057298;28;20295;-64
2023/07/28 12:50:22;;;;;;;3.73;1.50;;;;;;;23.70;69.00;100034.97;6048000;28;20049;-65
2023/07/28 12:53:17;;;;;;;2.92;1.38;;;;;;;24.00;68.85;100029.16;6047019;28;20387;-65
2023/07/28 12:56:13;;;;;;;4.07;1.40;;;;;;;24.13;68.52;100017.97;6047223;28;20602;-65
2023/07/28 12:59:09;;;;;;;2.37;1.67;;;;;;;24.42;68.18;100032.19;6046739;28;20675;-65
2023/07/28 13:02:04;;;;;;;2.72;1.50;;;;;;;24.58;68.01;100015.00;6047163;28;20160;-65
2023/07/28 13:04:59;;;;;;;2.90;1.50;;;;;;;25.36;64.09;100028.00;6046352;28;20037;-65
2023/07/28 13:07:54;;;;;;;6.57;1.50;;;;;;;25.28;64.25;100030.34;6058880;28;20041;-65
2023/07/28 13:10:50;;;;;;;2.67;1.40;;;;;;;24.83;63.29;100018.03;6046507;28;20044;-65
2023/07/28 13:13:45;;;;;;;2.57;1.70;;;;;;;25.55;62.41;100027.63;6055043;28;20374;-65
2023/07/28 13:16:40;;;;;;;2.23;1.30;;;;;;;26.09;60.32;100030.97;6047042;28;20048;-65
2023/07/28 13:19:36;;;;;;;2.80;1.50;;;;;;;25.76;59.61;100019.38;6046705;28;20030;-65
2023/07/28 13:22:32;;;;;;;2.97;1.43;;;;;;;25.66;60.63;100022.00;6050706;28;20029;-65
2023/07/28 13:25:27;;;;;;;3.78;1.65;;;;;;;25.49;61.93;100026.78;6046348;28;20342;-65
2023/07/28 13:28:23;;;;;;;2.38;1.45;;;;;;;25.37;61.23;100036.97;6048688;28;20033;-65
2023/07/28 13:31:19;;;;;;;3.30;1.30;;;;;;;25.42;61.39;100026.13;6046910;28;20237;-65
2023/07/28 13:34:14;;;;;;;2.77;1.50;;;;;;;25.42;59.46;100031.56;6045760;28;20037;-65
2023/07/28 13:37:09;;;;;;;2.53;1.60;;;;;;;25.38;59.86;100033.97;6047485;28;20429;-65
2023/07/28 13:40:05;;;;;;;4.53;1.47;;;;;;;26.07;59.25;100022.22;6046541;28;20083;-65